sensor_id;sensor_type;location;lat;lon;timestamp;pressure;altitude;pressure_sealevel;temperature;humidity
2685;BME280;1352;48.446;9.156;2023-10-13T00:02:00;95451.59;;;23.82;38.71
2685;BME280;1352;48.446;9.156;2023-10-13T00:04:30;95448.78;;;23.77;38.41
2685;BME280;1352;48.446;9.156;2023-10-13T00:06:58;95446.38;;;23.68;38.80
2685;BME280;1352;48.446;9.156;2023-10-13T00:09:24;95451.81;;;23.80;38.32
2685;BME280;1352;48.446;9.156;2023-10-13T00:11:59;95457.41;;;23.72;38.48
2685;BME280;1352;48.446;9.156;2023-10-13T00:14:25;95447.81;;;23.64;38.58
2685;BME280;1352;48.446;9.156;2023-10-13T00:16:58;95444.38;;;23.57;38.75
2685;BME280;1352;48.446;9.156;2023-10-13T00:19:29;95442.28;;;23.59;38.73
2685;BME280;1352;48.446;9.156;2023-10-13T00:22:03;95444.75;;;23.61;38.80
2685;BME280;1352;48.446;9.156;2023-10-13T00:24:34;95445.16;;;23.64;38.84
2685;BME280;1352;48.446;9.156;2023-10-13T00:27:10;95441.88;;;23.62;38.54
2685;BME280;1352;48.446;9.156;2023-10-13T00:29:55;95438.44;;;23.55;38.93
2685;BME280;1352;48.446;9.156;2023-10-13T00:32:41;95437.41;;;23.56;38.98
2685;BME280;1352;48.446;9.156;2023-10-13T00:35:09;95425.94;;;23.56;38.98
2685;BME280;1352;48.446;9.156;2023-10-13T00:37:38;95422.44;;;23.55;38.92
2685;BME280;1352;48.446;9.156;2023-10-13T00:40:10;95416.09;;;23.56;38.82
2685;BME280;1352;48.446;9.156;2023-10-13T00:42:59;95415.88;;;23.58;39.20
2685;BME280;1352;48.446;9.156;2023-10-13T00:45:47;95417.34;;;23.47;39.13
2685;BME280;1352;48.446;9.156;2023-10-13T00:48:20;95421.22;;;23.58;39.10
2685;BME280;1352;48.446;9.156;2023-10-13T00:50:50;95406.06;;;23.52;39.29
2685;BME280;1352;48.446;9.156;2023-10-13T00:53:15;95408.59;;;23.40;39.31
2685;BME280;1352;48.446;9.156;2023-10-13T00:55:43;95411.81;;;23.55;39.37
2685;BME280;1352;48.446;9.156;2023-10-13T00:58:10;95403.59;;;23.57;39.34
2685;BME280;1352;48.446;9.156;2023-10-13T01:00:40;95406.47;;;23.49;39.67
2685;BME280;1352;48.446;9.156;2023-10-13T01:03:12;95412.84;;;23.48;39.43
2685;BME280;1352;48.446;9.156;2023-10-13T01:05:40;95405.47;;;23.43;39.50
2685;BME280;1352;48.446;9.156;2023-10-13T01:08:06;95408.94;;;23.50;39.55
2685;BME280;1352;48.446;9.156;2023-10-13T01:10:37;95403.81;;;23.49;39.53
2685;BME280;1352;48.446;9.156;2023-10-13T01:13:03;95408.13;;;23.43;39.44
2685;BME280;1352;48.446;9.156;2023-10-13T01:15:31;95406.72;;;23.41;39.92
2685;BME280;1352;48.446;9.156;2023-10-13T01:18:05;95401.16;;;23.49;39.82
2685;BME280;1352;48.446;9.156;2023-10-13T01:20:36;95407.53;;;23.41;40.10
2685;BME280;1352;48.446;9.156;2023-10-13T01:23:10;95401.84;;;23.31;39.81
2685;BME280;1352;48.446;9.156;2023-10-13T01:25:43;95397.34;;;23.31;39.88
2685;BME280;1352;48.446;9.156;2023-10-13T01:28:10;95397.38;;;23.25;39.95
2685;BME280;1352;48.446;9.156;2023-10-13T01:30:41;95395.75;;;23.24;39.54
2685;BME280;1352;48.446;9.156;2023-10-13T01:33:07;95401.88;;;23.24;39.66
2685;BME280;1352;48.446;9.156;2023-10-13T01:35:36;95394.28;;;23.28;39.80
2685;BME280;1352;48.446;9.156;2023-10-13T01:38:07;95392.88;;;23.25;40.06
2685;BME280;1352;48.446;9.156;2023-10-13T01:40:34;95396.13;;;23.27;40.03
2685;BME280;1352;48.446;9.156;2023-10-13T01:43:01;95390.03;;;23.20;40.43
2685;BME280;1352;48.446;9.156;2023-10-13T01:45:26;95389.63;;;23.17;40.09
2685;BME280;1352;48.446;9.156;2023-10-13T01:47:55;95385.09;;;23.24;39.65
2685;BME280;1352;48.446;9.156;2023-10-13T01:50:21;95396.19;;;23.14;39.91
2685;BME280;1352;48.446;9.156;2023-10-13T01:52:54;95402.94;;;23.17;39.92
2685;BME280;1352;48.446;9.156;2023-10-13T01:55:31;95391.50;;;23.10;40.17
2685;BME280;1352;48.446;9.156;2023-10-13T01:58:06;95403.19;;;23.09;40.07
2685;BME280;1352;48.446;9.156;2023-10-13T02:00:39;95394.56;;;23.13;40.02
2685;BME280;1352;48.446;9.156;2023-10-13T02:03:07;95402.38;;;23.08;40.18
2685;BME280;1352;48.446;9.156;2023-10-13T02:05:40;95394.13;;;23.16;40.02
2685;BME280;1352;48.446;9.156;2023-10-13T02:08:09;95395.00;;;23.10;40.07
2685;BME280;1352;48.446;9.156;2023-10-13T02:10:36;95393.16;;;23.11;40.12
2685;BME280;1352;48.446;9.156;2023-10-13T02:13:11;95390.50;;;23.11;40.12
2685;BME280;1352;48.446;9.156;2023-10-13T02:15:41;95383.31;;;23.11;40.25
2685;BME280;1352;48.446;9.156;2023-10-13T02:18:09;95381.69;;;23.04;40.53
2685;BME280;1352;48.446;9.156;2023-10-13T02:20:35;95379.72;;;22.92;40.60
2685;BME280;1352;48.446;9.156;2023-10-13T02:23:08;95381.94;;;22.95;40.68
2685;BME280;1352;48.446;9.156;2023-10-13T02:25:35;95385.25;;;22.91;40.56
2685;BME280;1352;48.446;9.156;2023-10-13T02:28:08;95381.13;;;22.95;40.63
2685;BME280;1352;48.446;9.156;2023-10-13T02:30:40;95372.31;;;23.01;40.42
2685;BME280;1352;48.446;9.156;2023-10-13T02:33:11;95372.06;;;23.02;40.34
2685;BME280;1352;48.446;9.156;2023-10-13T02:35:37;95372.22;;;23.21;40.29
2685;BME280;1352;48.446;9.156;2023-10-13T02:38:08;95368.41;;;22.97;41.03
2685;BME280;1352;48.446;9.156;2023-10-13T02:40:37;95367.41;;;22.98;40.92
2685;BME280;1352;48.446;9.156;2023-10-13T02:43:04;95362.66;;;23.07;40.59
2685;BME280;1352;48.446;9.156;2023-10-13T02:45:31;95365.09;;;23.08;40.62
2685;BME280;1352;48.446;9.156;2023-10-13T02:47:59;95359.00;;;23.01;40.70
2685;BME280;1352;48.446;9.156;2023-10-13T02:50:39;95356.13;;;22.96;41.22
2685;BME280;1352;48.446;9.156;2023-10-13T02:53:09;95351.47;;;22.85;41.23
2685;BME280;1352;48.446;9.156;2023-10-13T02:55:38;95345.13;;;22.86;41.06
2685;BME280;1352;48.446;9.156;2023-10-13T02:58:05;95340.88;;;22.72;41.15
2685;BME280;1352;48.446;9.156;2023-10-13T03:00:31;95345.16;;;22.73;41.22
2685;BME280;1352;48.446;9.156;2023-10-13T03:03:00;95337.78;;;22.68;41.03
2685;BME280;1352;48.446;9.156;2023-10-13T03:05:26;95340.91;;;22.58;41.46
2685;BME280;1352;48.446;9.156;2023-10-13T03:07:56;95331.03;;;22.72;41.12
2685;BME280;1352;48.446;9.156;2023-10-13T03:10:24;95335.38;;;22.60;41.32
2685;BME280;1352;48.446;9.156;2023-10-13T03:12:54;95332.31;;;22.50;41.30
2685;BME280;1352;48.446;9.156;2023-10-13T03:15:21;95327.41;;;22.53;41.63
2685;BME280;1352;48.446;9.156;2023-10-13T03:17:55;95333.13;;;22.57;41.45
2685;BME280;1352;48.446;9.156;2023-10-13T03:20:25;95320.63;;;22.64;41.35
2685;BME280;1352;48.446;9.156;2023-10-13T03:22:57;95325.00;;;22.45;41.65
2685;BME280;1352;48.446;9.156;2023-10-13T03:25:23;95324.75;;;22.47;41.33
2685;BME280;1352;48.446;9.156;2023-10-13T03:27:54;95326.22;;;22.43;41.66
2685;BME280;1352;48.446;9.156;2023-10-13T03:30:26;95323.34;;;22.38;41.76
2685;BME280;1352;48.446;9.156;2023-10-13T03:33:01;95323.34;;;22.44;41.54
2685;BME280;1352;48.446;9.156;2023-10-13T03:35:34;95316.63;;;22.35;41.77
2685;BME280;1352;48.446;9.156;2023-10-13T03:38:07;95319.69;;;22.32;41.68
2685;BME280;1352;48.446;9.156;2023-10-13T03:40:43;95317.81;;;22.52;41.71
2685;BME280;1352;48.446;9.156;2023-10-13T03:43:15;95313.34;;;22.33;41.81
2685;BME280;1352;48.446;9.156;2023-10-13T03:45:48;95307.81;;;22.28;42.01
2685;BME280;1352;48.446;9.156;2023-10-13T03:48:18;95320.13;;;22.22;42.27
2685;BME280;1352;48.446;9.156;2023-10-13T03:50:55;95308.66;;;22.22;41.99
2685;BME280;1352;48.446;9.156;2023-10-13T03:53:28;95307.06;;;22.14;42.14
2685;BME280;1352;48.446;9.156;2023-10-13T03:55:58;95305.81;;;21.97;42.54
2685;BME280;1352;48.446;9.156;2023-10-13T03:58:37;95308.31;;;21.99;42.65
2685;BME280;1352;48.446;9.156;2023-10-13T04:01:07;95309.50;;;22.09;42.38
2685;BME280;1352;48.446;9.156;2023-10-13T04:03:35;95307.28;;;22.06;42.53
2685;BME280;1352;48.446;9.156;2023-10-13T04:06:06;95305.00;;;22.10;42.25
2685;BME280;1352;48.446;9.156;2023-10-13T04:08:33;95302.75;;;22.13;42.29
2685;BME280;1352;48.446;9.156;2023-10-13T04:11:14;95301.53;;;22.16;42.24
2685;BME280;1352;48.446;9.156;2023-10-13T04:13:58;95298.25;;;21.94;42.48
2685;BME280;1352;48.446;9.156;2023-10-13T04:16:44;95300.72;;;22.02;42.37
2685;BME280;1352;48.446;9.156;2023-10-13T04:19:18;95292.13;;;22.00;42.34
2685;BME280;1352;48.446;9.156;2023-10-13T04:21:55;95290.50;;;21.92;42.46
2685;BME280;1352;48.446;9.156;2023-10-13T04:24:26;95287.84;;;22.06;42.22
2685;BME280;1352;48.446;9.156;2023-10-13T04:27:10;95299.88;;;22.08;42.09
2685;BME280;1352;48.446;9.156;2023-10-13T04:30:04;95284.16;;;22.13;41.76
2685;BME280;1352;48.446;9.156;2023-10-13T04:32:36;95291.09;;;22.14;41.46
2685;BME280;1352;48.446;9.156;2023-10-13T04:35:07;95289.88;;;22.10;41.90
2685;BME280;1352;48.446;9.156;2023-10-13T04:37:43;95289.06;;;22.10;41.50
2685;BME280;1352;48.446;9.156;2023-10-13T04:40:23;95276.19;;;22.13;41.12
2685;BME280;1352;48.446;9.156;2023-10-13T04:42:50;95279.63;;;22.20;41.35
2685;BME280;1352;48.446;9.156;2023-10-13T04:45:19;95274.28;;;22.27;41.35
2685;BME280;1352;48.446;9.156;2023-10-13T04:48:02;95270.84;;;22.20;41.04
2685;BME280;1352;48.446;9.156;2023-10-13T04:50:43;95268.19;;;22.20;41.34
2685;BME280;1352;48.446;9.156;2023-10-13T04:53:13;95267.38;;;22.26;41.29
2685;BME280;1352;48.446;9.156;2023-10-13T04:55:55;95257.19;;;22.16;41.49
2685;BME280;1352;48.446;9.156;2023-10-13T04:58:54;95252.06;;;22.15;41.86
2685;BME280;1352;48.446;9.156;2023-10-13T05:01:38;95256.72;;;22.19;41.71
2685;BME280;1352;48.446;9.156;2023-10-13T05:04:30;95255.31;;;22.23;41.63
2685;BME280;1352;48.446;9.156;2023-10-13T05:07:22;95251.19;;;22.34;41.61
2685;BME280;1352;48.446;9.156;2023-10-13T05:10:13;95250.09;;;22.48;41.46
2685;BME280;1352;48.446;9.156;2023-10-13T05:12:57;95260.28;;;22.64;41.34
2685;BME280;1352;48.446;9.156;2023-10-13T05:15:44;95252.50;;;22.63;41.30
2685;BME280;1352;48.446;9.156;2023-10-13T05:18:28;95252.28;;;22.64;41.23
2685;BME280;1352;48.446;9.156;2023-10-13T05:21:12;95257.63;;;22.58;41.25
2685;BME280;1352;48.446;9.156;2023-10-13T05:23:56;95255.38;;;22.61;41.18
2685;BME280;1352;48.446;9.156;2023-10-13T05:26:41;95254.56;;;22.61;41.02
2685;BME280;1352;48.446;9.156;2023-10-13T05:29:25;95252.25;;;22.71;40.81
2685;BME280;1352;48.446;9.156;2023-10-13T05:32:09;95254.09;;;22.77;40.40
2685;BME280;1352;48.446;9.156;2023-10-13T05:34:53;95244.25;;;22.78;39.69
2685;BME280;1352;48.446;9.156;2023-10-13T05:37:37;95250.19;;;22.80;39.97
2685;BME280;1352;48.446;9.156;2023-10-13T05:40:21;95252.78;;;22.93;39.68
2685;BME280;1352;48.446;9.156;2023-10-13T05:43:07;95254.50;;;22.81;39.01
2685;BME280;1352;48.446;9.156;2023-10-13T05:45:51;95259.50;;;22.95;39.32
2685;BME280;1352;48.446;9.156;2023-10-13T05:48:34;95247.84;;;22.96;38.72
2685;BME280;1352;48.446;9.156;2023-10-13T05:51:28;95255.09;;;23.14;39.01
2685;BME280;1352;48.446;9.156;2023-10-13T05:54:09;95251.19;;;23.17;38.71
2685;BME280;1352;48.446;9.156;2023-10-13T05:56:54;95255.78;;;23.03;39.96
2685;BME280;1352;48.446;9.156;2023-10-13T05:59:39;95250.59;;;22.83;40.63
2685;BME280;1352;48.446;9.156;2023-10-13T06:02:23;95247.03;;;22.96;39.99
2685;BME280;1352;48.446;9.156;2023-10-13T06:05:08;95251.81;;;22.74;40.39
2685;BME280;1352;48.446;9.156;2023-10-13T06:07:52;95256.34;;;22.74;39.75
2685;BME280;1352;48.446;9.156;2023-10-13T06:10:37;95262.44;;;22.74;39.45
2685;BME280;1352;48.446;9.156;2023-10-13T06:13:20;95255.91;;;22.83;39.93
2685;BME280;1352;48.446;9.156;2023-10-13T06:16:06;95261.25;;;22.77;39.56
2685;BME280;1352;48.446;9.156;2023-10-13T06:18:50;95254.47;;;22.74;39.63
2685;BME280;1352;48.446;9.156;2023-10-13T06:21:34;95243.41;;;22.84;38.74
2685;BME280;1352;48.446;9.156;2023-10-13T06:24:18;95256.03;;;22.95;38.90
2685;BME280;1352;48.446;9.156;2023-10-13T06:27:02;95249.06;;;22.94;38.81
2685;BME280;1352;48.446;9.156;2023-10-13T06:29:46;95254.41;;;22.94;38.63
2685;BME280;1352;48.446;9.156;2023-10-13T06:32:14;95257.50;;;22.91;38.57
2685;BME280;1352;48.446;9.156;2023-10-13T06:34:41;95254.94;;;23.09;37.90
2685;BME280;1352;48.446;9.156;2023-10-13T06:37:10;95244.66;;;23.13;37.39
2685;BME280;1352;48.446;9.156;2023-10-13T06:39:49;95249.00;;;23.38;36.71
2685;BME280;1352;48.446;9.156;2023-10-13T06:42:16;95242.41;;;23.41;36.04
2685;BME280;1352;48.446;9.156;2023-10-13T06:44:44;95250.06;;;23.62;36.98
2685;BME280;1352;48.446;9.156;2023-10-13T06:47:12;95249.56;;;23.72;35.34
2685;BME280;1352;48.446;9.156;2023-10-13T06:49:40;95249.41;;;23.67;34.63
2685;BME280;1352;48.446;9.156;2023-10-13T06:52:08;95249.78;;;23.70;33.42
2685;BME280;1352;48.446;9.156;2023-10-13T06:54:35;95256.94;;;23.70;34.79
2685;BME280;1352;48.446;9.156;2023-10-13T06:57:04;95254.97;;;23.65;35.92
2685;BME280;1352;48.446;9.156;2023-10-13T06:59:32;95250.66;;;23.33;38.71
2685;BME280;1352;48.446;9.156;2023-10-13T07:02:01;95259.44;;;23.40;37.75
2685;BME280;1352;48.446;9.156;2023-10-13T07:04:30;95258.38;;;23.41;38.20
2685;BME280;1352;48.446;9.156;2023-10-13T07:06:58;95255.53;;;23.11;38.53
2685;BME280;1352;48.446;9.156;2023-10-13T07:09:26;95263.03;;;22.89;39.19
2685;BME280;1352;48.446;9.156;2023-10-13T07:12:06;95260.78;;;22.86;39.75
2685;BME280;1352;48.446;9.156;2023-10-13T07:14:45;95265.13;;;22.81;40.15
2685;BME280;1352;48.446;9.156;2023-10-13T07:17:16;95264.72;;;23.15;40.08
2685;BME280;1352;48.446;9.156;2023-10-13T07:19:49;95266.19;;;23.11;40.69
2685;BME280;1352;48.446;9.156;2023-10-13T07:22:20;95269.56;;;23.25;42.04
2685;BME280;1352;48.446;9.156;2023-10-13T07:24:47;95268.16;;;23.22;43.73
2685;BME280;1352;48.446;9.156;2023-10-13T07:27:15;95273.56;;;23.09;45.07
2685;BME280;1352;48.446;9.156;2023-10-13T07:29:48;95270.94;;;23.02;45.31
2685;BME280;1352;48.446;9.156;2023-10-13T07:32:21;95270.16;;;22.95;46.13
2685;BME280;1352;48.446;9.156;2023-10-13T07:34:52;95262.00;;;22.90;44.83
2685;BME280;1352;48.446;9.156;2023-10-13T07:37:22;95270.34;;;23.00;43.19
2685;BME280;1352;48.446;9.156;2023-10-13T07:39:53;95273.38;;;23.11;44.08
2685;BME280;1352;48.446;9.156;2023-10-13T07:42:23;95278.78;;;23.22;45.18
2685;BME280;1352;48.446;9.156;2023-10-13T07:44:55;95275.19;;;23.42;45.12
2685;BME280;1352;48.446;9.156;2023-10-13T07:47:22;95272.78;;;23.65;44.21
2685;BME280;1352;48.446;9.156;2023-10-13T07:49:50;95271.84;;;23.53;39.91
2685;BME280;1352;48.446;9.156;2023-10-13T07:52:16;95276.59;;;23.44;41.13
2685;BME280;1352;48.446;9.156;2023-10-13T07:55:03;95273.13;;;23.75;41.20
2685;BME280;1352;48.446;9.156;2023-10-13T07:57:45;95274.56;;;23.96;40.93
2685;BME280;1352;48.446;9.156;2023-10-13T08:00:22;95270.63;;;23.98;41.14
2685;BME280;1352;48.446;9.156;2023-10-13T08:02:58;95271.28;;;24.37;41.75
2685;BME280;1352;48.446;9.156;2023-10-13T08:05:34;95274.19;;;24.35;41.92
2685;BME280;1352;48.446;9.156;2023-10-13T08:08:21;95273.31;;;24.23;40.54
2685;BME280;1352;48.446;9.156;2023-10-13T08:10:52;95261.44;;;24.37;41.83
2685;BME280;1352;48.446;9.156;2023-10-13T08:13:22;95260.78;;;24.42;38.58
2685;BME280;1352;48.446;9.156;2023-10-13T08:15:49;95262.00;;;24.76;37.42
2685;BME280;1352;48.446;9.156;2023-10-13T08:18:17;95270.72;;;24.83;35.89
2685;BME280;1352;48.446;9.156;2023-10-13T08:20:56;95255.41;;;24.97;31.33
2685;BME280;1352;48.446;9.156;2023-10-13T08:23:28;95254.59;;;25.38;30.82
2685;BME280;1352;48.446;9.156;2023-10-13T08:26:22;95262.28;;;25.57;29.83
2685;BME280;1352;48.446;9.156;2023-10-13T08:29:22;95250.97;;;25.85;29.86
2685;BME280;1352;48.446;9.156;2023-10-13T08:32:06;95253.75;;;26.02;28.24
2685;BME280;1352;48.446;9.156;2023-10-13T08:35:01;95257.34;;;26.19;28.19
2685;BME280;1352;48.446;9.156;2023-10-13T08:37:48;95246.31;;;26.39;29.26
2685;BME280;1352;48.446;9.156;2023-10-13T08:40:26;95253.44;;;26.62;28.96
2685;BME280;1352;48.446;9.156;2023-10-13T08:43:12;95253.28;;;26.92;27.16
2685;BME280;1352;48.446;9.156;2023-10-13T08:45:39;95245.25;;;26.92;28.38
2685;BME280;1352;48.446;9.156;2023-10-13T08:48:24;95250.31;;;27.05;27.76
2685;BME280;1352;48.446;9.156;2023-10-13T08:50:56;95249.03;;;27.08;26.81
2685;BME280;1352;48.446;9.156;2023-10-13T08:53:29;95250.16;;;27.12;27.08
2685;BME280;1352;48.446;9.156;2023-10-13T08:55:58;95245.16;;;27.15;26.92
2685;BME280;1352;48.446;9.156;2023-10-13T08:58:33;95235.31;;;27.21;26.72
2685;BME280;1352;48.446;9.156;2023-10-13T09:01:17;95250.50;;;27.15;27.49
2685;BME280;1352;48.446;9.156;2023-10-13T09:03:58;95247.69;;;27.38;26.67
2685;BME280;1352;48.446;9.156;2023-10-13T09:06:46;95247.63;;;27.33;26.83
2685;BME280;1352;48.446;9.156;2023-10-13T09:09:12;95255.34;;;27.47;27.74
2685;BME280;1352;48.446;9.156;2023-10-13T09:11:53;95254.41;;;27.69;27.73
2685;BME280;1352;48.446;9.156;2023-10-13T09:14:31;95250.03;;;27.80;30.26
2685;BME280;1352;48.446;9.156;2023-10-13T09:17:04;95247.41;;;27.68;27.65
2685;BME280;1352;48.446;9.156;2023-10-13T09:19:44;95249.94;;;27.92;27.78
2685;BME280;1352;48.446;9.156;2023-10-13T09:22:19;95239.50;;;27.95;28.62
2685;BME280;1352;48.446;9.156;2023-10-13T09:24:50;95247.66;;;28.00;26.45
2685;BME280;1352;48.446;9.156;2023-10-13T09:27:17;95236.13;;;28.00;27.43
2685;BME280;1352;48.446;9.156;2023-10-13T09:29:55;95236.41;;;28.03;27.74
2685;BME280;1352;48.446;9.156;2023-10-13T09:32:21;95238.31;;;28.20;26.90
2685;BME280;1352;48.446;9.156;2023-10-13T09:34:47;95242.66;;;28.26;27.14
2685;BME280;1352;48.446;9.156;2023-10-13T09:37:15;95237.56;;;28.24;27.86
2685;BME280;1352;48.446;9.156;2023-10-13T09:39:46;95243.44;;;28.43;28.02
2685;BME280;1352;48.446;9.156;2023-10-13T09:42:16;95233.63;;;28.54;26.84
2685;BME280;1352;48.446;9.156;2023-10-13T09:44:43;95234.38;;;28.71;28.00
2685;BME280;1352;48.446;9.156;2023-10-13T09:47:17;95236.00;;;28.72;26.94
2685;BME280;1352;48.446;9.156;2023-10-13T09:49:49;95234.69;;;28.74;26.67
2685;BME280;1352;48.446;9.156;2023-10-13T09:52:17;95230.53;;;28.83;26.21
2685;BME280;1352;48.446;9.156;2023-10-13T09:54:52;95233.47;;;28.82;26.55
2685;BME280;1352;48.446;9.156;2023-10-13T09:57:27;95228.66;;;28.84;25.93
2685;BME280;1352;48.446;9.156;2023-10-13T10:00:00;95223.69;;;28.98;28.17
2685;BME280;1352;48.446;9.156;2023-10-13T10:02:33;95213.59;;;29.05;26.60
2685;BME280;1352;48.446;9.156;2023-10-13T10:04:59;95217.31;;;29.04;26.86
2685;BME280;1352;48.446;9.156;2023-10-13T10:07:53;95218.97;;;28.83;26.61
2685;BME280;1352;48.446;9.156;2023-10-13T10:10:20;95212.88;;;28.88;26.48
2685;BME280;1352;48.446;9.156;2023-10-13T10:12:48;95209.88;;;28.84;27.02
2685;BME280;1352;48.446;9.156;2023-10-13T10:15:22;95212.44;;;29.01;27.24
2685;BME280;1352;48.446;9.156;2023-10-13T10:17:57;95205.69;;;28.98;27.17
2685;BME280;1352;48.446;9.156;2023-10-13T10:20:29;95204.06;;;28.97;26.35
2685;BME280;1352;48.446;9.156;2023-10-13T10:23:05;95201.25;;;29.09;26.90
2685;BME280;1352;48.446;9.156;2023-10-13T10:25:35;95205.31;;;28.84;26.20
2685;BME280;1352;48.446;9.156;2023-10-13T10:28:03;95198.72;;;28.75;26.56
2685;BME280;1352;48.446;9.156;2023-10-13T10:30:32;95192.28;;;28.76;26.73
2685;BME280;1352;48.446;9.156;2023-10-13T10:33:01;95198.16;;;28.73;26.33
2685;BME280;1352;48.446;9.156;2023-10-13T10:35:37;95193.25;;;28.65;26.92
2685;BME280;1352;48.446;9.156;2023-10-13T10:38:08;95189.16;;;28.63;27.10
2685;BME280;1352;48.446;9.156;2023-10-13T10:40:50;95193.13;;;28.77;27.94
2685;BME280;1352;48.446;9.156;2023-10-13T10:43:23;95189.44;;;28.83;28.43
2685;BME280;1352;48.446;9.156;2023-10-13T10:45:51;95185.66;;;29.06;28.26
2685;BME280;1352;48.446;9.156;2023-10-13T10:48:26;95178.84;;;28.98;27.68
2685;BME280;1352;48.446;9.156;2023-10-13T10:50:59;95180.63;;;28.88;27.93
2685;BME280;1352;48.446;9.156;2023-10-13T10:53:33;95178.53;;;28.95;27.72
2685;BME280;1352;48.446;9.156;2023-10-13T10:56:09;95178.88;;;28.76;27.78
2685;BME280;1352;48.446;9.156;2023-10-13T10:58:45;95174.44;;;28.65;27.13
2685;BME280;1352;48.446;9.156;2023-10-13T11:01:11;95174.44;;;28.65;27.18
2685;BME280;1352;48.446;9.156;2023-10-13T11:03:53;95177.25;;;28.54;27.65
2685;BME280;1352;48.446;9.156;2023-10-13T11:06:22;95170.56;;;28.56;26.39
2685;BME280;1352;48.446;9.156;2023-10-13T11:09:01;95161.88;;;28.71;28.22
2685;BME280;1352;48.446;9.156;2023-10-13T11:11:29;95146.88;;;28.75;28.12
2685;BME280;1352;48.446;9.156;2023-10-13T11:13:59;95146.81;;;28.92;28.45
2685;BME280;1352;48.446;9.156;2023-10-13T11:16:46;95145.53;;;28.99;26.63
2685;BME280;1352;48.446;9.156;2023-10-13T11:19:17;95146.69;;;29.08;26.55
2685;BME280;1352;48.446;9.156;2023-10-13T11:21:51;95137.91;;;29.18;26.17
2685;BME280;1352;48.446;9.156;2023-10-13T11:24:18;95144.97;;;29.29;26.61
2685;BME280;1352;48.446;9.156;2023-10-13T11:26:47;95142.38;;;29.07;26.46
2685;BME280;1352;48.446;9.156;2023-10-13T11:29:17;95146.66;;;29.03;26.86
2685;BME280;1352;48.446;9.156;2023-10-13T11:31:48;95134.44;;;28.91;27.33
2685;BME280;1352;48.446;9.156;2023-10-13T11:34:24;95141.81;;;28.78;26.76
2685;BME280;1352;48.446;9.156;2023-10-13T11:36:55;95128.16;;;28.80;27.18
2685;BME280;1352;48.446;9.156;2023-10-13T11:39:22;95112.72;;;28.97;26.84
2685;BME280;1352;48.446;9.156;2023-10-13T11:41:58;95115.47;;;29.02;27.29
2685;BME280;1352;48.446;9.156;2023-10-13T11:44:24;95119.81;;;29.08;27.45
2685;BME280;1352;48.446;9.156;2023-10-13T11:46:56;95103.56;;;29.25;27.73
2685;BME280;1352;48.446;9.156;2023-10-13T11:49:34;95105.44;;;29.24;28.10
2685;BME280;1352;48.446;9.156;2023-10-13T11:52:02;95101.97;;;29.29;27.37
2685;BME280;1352;48.446;9.156;2023-10-13T11:54:41;95090.13;;;29.25;26.38
2685;BME280;1352;48.446;9.156;2023-10-13T11:57:08;95094.56;;;29.41;27.25
2685;BME280;1352;48.446;9.156;2023-10-13T11:59:35;95097.81;;;29.43;27.24
2685;BME280;1352;48.446;9.156;2023-10-13T12:02:10;95079.66;;;29.29;27.32
2685;BME280;1352;48.446;9.156;2023-10-13T12:04:55;95080.81;;;29.38;27.72
2685;BME280;1352;48.446;9.156;2023-10-13T12:07:24;95079.59;;;29.55;28.12
2685;BME280;1352;48.446;9.156;2023-10-13T12:09:52;95077.28;;;29.74;28.62
2685;BME280;1352;48.446;9.156;2023-10-13T12:12:31;95081.13;;;29.88;26.25
2685;BME280;1352;48.446;9.156;2023-10-13T12:15:06;95072.44;;;29.76;26.95
2685;BME280;1352;48.446;9.156;2023-10-13T12:17:39;95070.59;;;29.82;27.26
2685;BME280;1352;48.446;9.156;2023-10-13T12:20:11;95066.59;;;29.89;27.03
2685;BME280;1352;48.446;9.156;2023-10-13T12:22:44;95059.13;;;29.96;26.27
2685;BME280;1352;48.446;9.156;2023-10-13T12:25:20;95054.00;;;29.95;27.18
2685;BME280;1352;48.446;9.156;2023-10-13T12:27:50;95054.56;;;29.97;26.30
2685;BME280;1352;48.446;9.156;2023-10-13T12:30:21;95049.66;;;29.94;27.03
2685;BME280;1352;48.446;9.156;2023-10-13T12:33:08;95050.50;;;29.94;26.86
2685;BME280;1352;48.446;9.156;2023-10-13T12:35:36;95055.03;;;29.94;27.07
2685;BME280;1352;48.446;9.156;2023-10-13T12:38:11;95044.41;;;29.62;26.81
2685;BME280;1352;48.446;9.156;2023-10-13T12:41:04;95040.66;;;29.63;26.49
2685;BME280;1352;48.446;9.156;2023-10-13T12:43:50;95039.03;;;29.62;27.20
2685;BME280;1352;48.446;9.156;2023-10-13T12:46:34;95026.97;;;29.75;27.38
2685;BME280;1352;48.446;9.156;2023-10-13T12:49:18;95037.50;;;29.81;27.78
2685;BME280;1352;48.446;9.156;2023-10-13T12:52:05;95032.50;;;30.00;27.80
2685;BME280;1352;48.446;9.156;2023-10-13T12:54:41;95026.31;;;30.05;26.91
2685;BME280;1352;48.446;9.156;2023-10-13T12:57:12;95020.16;;;30.14;27.11
2685;BME280;1352;48.446;9.156;2023-10-13T12:59:38;95021.47;;;30.12;27.49
2685;BME280;1352;48.446;9.156;2023-10-13T13:02:06;95022.34;;;30.27;27.28
2685;BME280;1352;48.446;9.156;2023-10-13T13:04:39;95015.06;;;30.33;27.40
2685;BME280;1352;48.446;9.156;2023-10-13T13:07:10;95011.81;;;30.21;27.07
2685;BME280;1352;48.446;9.156;2023-10-13T13:09:39;95016.34;;;30.05;27.87
2685;BME280;1352;48.446;9.156;2023-10-13T13:12:06;95003.41;;;30.02;27.16
2685;BME280;1352;48.446;9.156;2023-10-13T13:14:33;95010.75;;;30.17;26.95
2685;BME280;1352;48.446;9.156;2023-10-13T13:17:00;95009.44;;;30.40;27.15
2685;BME280;1352;48.446;9.156;2023-10-13T13:19:31;95014.88;;;30.60;26.68
2685;BME280;1352;48.446;9.156;2023-10-13T13:22:01;94994.69;;;30.57;26.30
2685;BME280;1352;48.446;9.156;2023-10-13T13:24:30;94998.94;;;30.48;27.06
2685;BME280;1352;48.446;9.156;2023-10-13T13:26:57;94999.00;;;30.63;26.68
2685;BME280;1352;48.446;9.156;2023-10-13T13:29:28;94997.09;;;30.64;27.30
2685;BME280;1352;48.446;9.156;2023-10-13T13:31:55;94991.47;;;30.86;26.97
2685;BME280;1352;48.446;9.156;2023-10-13T13:34:22;94993.06;;;30.82;26.91
2685;BME280;1352;48.446;9.156;2023-10-13T13:36:49;94982.81;;;30.79;26.94
2685;BME280;1352;48.446;9.156;2023-10-13T13:39:18;94980.13;;;30.74;26.88
2685;BME280;1352;48.446;9.156;2023-10-13T13:41:56;94982.56;;;30.65;27.62
2685;BME280;1352;48.446;9.156;2023-10-13T13:44:23;94975.22;;;30.25;26.60
2685;BME280;1352;48.446;9.156;2023-10-13T13:46:55;94974.69;;;30.28;26.54
2685;BME280;1352;48.446;9.156;2023-10-13T13:49:22;94973.34;;;30.30;26.88
2685;BME280;1352;48.446;9.156;2023-10-13T13:51:55;94966.09;;;30.36;28.41
2685;BME280;1352;48.446;9.156;2023-10-13T13:54:21;94977.44;;;30.53;27.21
2685;BME280;1352;48.446;9.156;2023-10-13T13:56:52;94957.50;;;30.64;27.94
2685;BME280;1352;48.446;9.156;2023-10-13T13:59:20;94956.97;;;30.73;26.96